Time;durP1;ratioP1;P1;durP2;ratioP2;P2;SDS_P1;SDS_P2;PMS_P1;PMS_P2;Temp;Humidity;BMP_temperature;BMP_pressure;BME280_temperature;BME280_humidity;BME280_pressure;Samples;Min_cycle;Max_cycle;Signal;HPM_P1;HPM_P2
2023/06/17 00:01:58;;;;;;;6.60;5.05;;;;;;;;;;5108596;28;20048;-63
2023/06/17 00:04:26;;;;;;;5.97;5.03;;;;;;;;;;5111406;28;20051;-63
2023/06/17 00:06:53;;;;;;;6.15;5.20;;;;;;;;;;5112842;28;20062;-62
2023/06/17 00:09:20;;;;;;;5.85;4.97;;;;;;;;;;5112487;28;20063;-62
2023/06/17 00:11:51;;;;;;;5.95;5.18;;;;;;;;;;5112909;28;20404;-63
2023/06/17 00:14:20;;;;;;;6.78;5.20;;;;;;;;;;5111283;28;20061;-62
2023/06/17 00:16:51;;;;;;;6.30;5.55;;;;;;;;;;5112846;28;20403;-63
2023/06/17 00:19:20;;;;;;;6.38;5.68;;;;;;;;;;5108207;28;20488;-62
2023/06/17 00:21:48;;;;;;;;;;;;;;;;;;5113346;28;20051;-62
2023/06/17 00:24:16;;;;;;;6.65;5.47;;;;;;;;;;5111328;28;19920;-62
2023/06/17 00:26:43;;;;;;;8.57;5.50;;;;;;;;;;5112830;28;20059;-62
2023/06/17 00:29:10;;;;;;;6.07;5.05;;;;;;;;;;5112466;28;20059;-62
2023/06/17 00:31:36;;;;;;;5.93;5.07;;;;;;;;;;5112696;28;20055;-62
2023/06/17 00:34:03;;;;;;;6.28;4.95;;;;;;;;;;5108134;28;20518;-63
2023/06/17 00:36:30;;;;;;;7.43;5.07;;;;;;;;;;5115850;28;20066;-62
2023/06/17 00:38:58;;;;;;;6.45;5.22;;;;;;;;;;5115952;28;20059;-63
2023/06/17 00:41:27;;;;;;;7.32;4.78;;;;;;;;;;5116031;28;20051;-62
2023/06/17 00:43:54;;;;;;;6.35;5.07;;;;;;;;;;5114559;28;20507;-63
2023/06/17 00:46:23;;;;;;;6.15;4.97;;;;;;;;;;5115868;28;20404;-62
2023/06/17 00:48:50;;;;;;;7.07;5.35;;;;;;;;;;5110287;28;20052;-63
2023/06/17 00:51:17;;;;;;;5.68;5.07;;;;;;;;;;5116194;28;20369;-62
2023/06/17 00:53:44;;;;;;;6.10;4.75;;;;;;;;;;5114223;28;20420;-62
2023/06/17 00:56:12;;;;;;;7.47;5.57;;;;;;;;;;5115841;28;20047;-63
2023/06/17 00:58:43;;;;;;;6.38;4.78;;;;;;;;;;5107779;28;20052;-63
2023/06/17 01:01:31;;;;;;;7.32;5.30;;;;;;;;;;5115936;28;20052;-63
2023/06/17 01:04:10;;;;;;;8.07;5.25;;;;;;;;;;5100431;27;20511;-63
2023/06/17 01:06:43;;;;;;;5.85;5.18;;;;;;;;;;5115807;28;20401;-62
2023/06/17 01:09:15;;;;;;;5.72;5.13;;;;;;;;;;5115769;28;20051;-63
2023/06/17 01:11:42;;;;;;;6.30;5.10;;;;;;;;;;5116169;28;20495;-63
2023/06/17 01:14:11;;;;;;;5.47;4.93;;;;;;;;;;5111294;28;20062;-62
2023/06/17 01:16:50;;;;;;;8.07;5.80;;;;;;;;;;5115609;28;20051;-62
2023/06/17 01:19:21;;;;;;;8.48;5.43;;;;;;;;;;5113426;27;20062;-63
2023/06/17 01:21:57;;;;;;;5.60;5.10;;;;;;;;;;5115657;28;20051;-64
2023/06/17 01:24:30;;;;;;;6.35;5.40;;;;;;;;;;5115517;28;20056;-63
2023/06/17 01:26:59;;;;;;;6.28;5.65;;;;;;;;;;5114432;27;20063;-64
2023/06/17 01:29:29;;;;;;;5.40;4.90;;;;;;;;;;5095107;28;20048;-63
2023/06/17 01:31:58;;;;;;;8.55;5.47;;;;;;;;;;5094079;28;20052;-62
2023/06/17 01:34:26;;;;;;;8.53;5.80;;;;;;;;;;5094904;28;20048;-63
2023/06/17 01:36:54;;;;;;;7.33;6.10;;;;;;;;;;5115339;28;20980;-63
2023/06/17 01:39:26;;;;;;;6.53;5.75;;;;;;;;;;5114442;28;21012;-63
2023/06/17 01:41:58;;;;;;;5.93;5.05;;;;;;;;;;5114623;28;20052;-61
2023/06/17 01:44:29;;;;;;;6.63;5.82;;;;;;;;;;5111009;27;20044;-62
2023/06/17 01:46:59;;;;;;;6.55;5.75;;;;;;;;;;5113978;28;20500;-63
2023/06/17 01:49:25;;;;;;;6.13;5.53;;;;;;;;;;5112514;27;20046;-63
2023/06/17 01:54:37;;;;;;;7.55;5.78;;;;;;;;;;5089933;28;20052;-63
2023/06/17 01:57:06;;;;;;;6.13;5.53;;;;;;;;;;5093263;28;20048;-63
2023/06/17 01:59:33;;;;;;;8.45;5.63;;;;;;;;;;5096804;28;20056;-63
2023/06/17 02:02:00;;;;;;;7.07;5.18;;;;;;;;;;5102786;27;20055;-63
2023/06/17 02:04:27;;;;;;;6.63;5.60;;;;;;;;;;5113623;27;20059;-62
2023/06/17 02:06:54;;;;;;;7.88;5.47;;;;;;;;;;5114721;28;20051;-61
2023/06/17 02:09:21;;;;;;;6.50;5.72;;;;;;;;;;5110138;28;20052;-62
2023/06/17 02:11:56;;;;;;;7.03;5.50;;;;;;;;;;5113634;27;20062;-63
2023/06/17 02:14:29;;;;;;;8.07;5.57;;;;;;;;;;5111346;28;20048;-63
2023/06/17 02:16:57;;;;;;;6.07;5.32;;;;;;;;;;5114360;28;20051;-62
2023/06/17 02:19:37;;;;;;;6.90;5.82;;;;;;;;;;5113731;27;20036;-63
2023/06/17 02:22:07;;;;;;;8.18;5.97;;;;;;;;;;5113397;28;20058;-63
2023/06/17 02:24:34;;;;;;;6.95;5.75;;;;;;;;;;5114303;28;20055;-62
2023/06/17 02:27:03;;;;;;;6.38;5.57;;;;;;;;;;5114529;28;20062;-62
2023/06/17 02:29:31;;;;;;;6.63;5.50;;;;;;;;;;5112452;28;20050;-62
2023/06/17 02:31:58;;;;;;;6.93;6.10;;;;;;;;;;5114091;28;20047;-62
2023/06/17 02:34:25;;;;;;;6.35;5.20;;;;;;;;;;5112087;27;20509;-62
2023/06/17 02:39:36;;;;;;;7.13;5.90;;;;;;;;;;5112763;28;20377;-61
2023/06/17 02:42:04;;;;;;;6.82;5.25;;;;;;;;;;5113987;28;20058;-62
2023/06/17 02:44:32;;;;;;;5.75;5.15;;;;;;;;;;5114158;28;20058;-62
2023/06/17 02:46:59;;;;;;;6.32;5.43;;;;;;;;;;5111991;28;20051;-62
2023/06/17 02:49:26;;;;;;;7.70;5.90;;;;;;;;;;5112288;28;20047;-62
2023/06/17 02:51:53;;;;;;;6.10;5.50;;;;;;;;;;5105628;28;20519;-63
2023/06/17 02:54:20;;;;;;;6.47;5.13;;;;;;;;;;5114140;28;20063;-62
2023/06/17 02:56:46;;;;;;;7.78;5.97;;;;;;;;;;5111724;28;20052;-62
2023/06/17 02:59:15;;;;;;;7.32;5.70;;;;;;;;;;5113704;28;20070;-63
2023/06/17 03:01:43;;;;;;;8.80;5.57;;;;;;;;;;5111890;28;20196;-62
2023/06/17 03:04:11;;;;;;;7.05;6.00;;;;;;;;;;5109851;28;20059;-62
2023/06/17 03:06:41;;;;;;;7.88;5.88;;;;;;;;;;5115760;27;20062;-62
2023/06/17 03:09:08;;;;;;;6.68;5.32;;;;;;;;;;5113779;28;20056;-62
2023/06/17 03:11:35;;;;;;;7.38;5.72;;;;;;;;;;5113426;28;20051;-62
2023/06/17 03:14:02;;;;;;;7.10;5.93;;;;;;;;;;5113431;28;20397;-62
2023/06/17 03:16:30;;;;;;;5.35;4.85;;;;;;;;;;5111963;28;20044;-62
2023/06/17 03:18:59;;;;;;;6.53;5.70;;;;;;;;;;5113007;28;20074;-61
2023/06/17 03:21:29;;;;;;;6.72;5.82;;;;;;;;;;5108161;28;20054;-61
2023/06/17 03:23:57;;;;;;;7.55;5.85;;;;;;;;;;5113329;28;20508;-61
2023/06/17 03:26:23;;;;;;;7.10;5.75;;;;;;;;;;5112381;28;20424;-61
2023/06/17 03:28:51;;;;;;;9.43;6.47;;;;;;;;;;5113158;28;20054;-61
2023/06/17 03:31:21;;;;;;;8.50;6.00;;;;;;;;;;5113255;28;20488;-61
2023/06/17 03:33:48;;;;;;;6.57;5.88;;;;;;;;;;5112696;28;20047;-62
2023/06/17 03:36:17;;;;;;;7.88;5.68;;;;;;;;;;5112665;28;20051;-63
2023/06/17 03:38:44;;;;;;;9.07;5.45;;;;;;;;;;5112775;28;20510;-62
2023/06/17 03:41:11;;;;;;;8.57;6.63;;;;;;;;;;5109270;28;20059;-62
2023/06/17 03:43:38;;;;;;;8.57;5.90;;;;;;;;;;5113140;28;20118;-62
2023/06/17 03:46:05;;;;;;;10.52;6.82;;;;;;;;;;5111318;28;20052;-62
2023/06/17 03:48:32;;;;;;;7.88;5.95;;;;;;;;;;5112934;28;20070;-61
2023/06/17 03:51:01;;;;;;;7.75;5.90;;;;;;;;;;5108537;28;20048;-62
2023/06/17 03:53:29;;;;;;;6.75;5.95;;;;;;;;;;5113076;28;20056;-62
2023/06/17 03:55:56;;;;;;;7.00;6.30;;;;;;;;;;5110939;28;20059;-62
2023/06/17 03:58:25;;;;;;;9.60;6.25;;;;;;;;;;5112499;28;20051;-62
2023/06/17 04:00:53;;;;;;;7.68;5.93;;;;;;;;;;5112904;28;20043;-61
2023/06/17 04:03:24;;;;;;;6.85;6.15;;;;;;;;;;5096797;28;20048;-62
2023/06/17 04:05:51;;;;;;;9.45;7.30;;;;;;;;;;5091058;28;20048;-62
2023/06/17 04:08:18;;;;;;;11.18;6.13;;;;;;;;;;5112656;28;20051;-62
2023/06/17 04:10:47;;;;;;;7.10;6.38;;;;;;;;;;5114146;28;20054;-61
2023/06/17 04:13:14;;;;;;;7.20;6.22;;;;;;;;;;5116310;28;20056;-62
2023/06/17 04:15:41;;;;;;;7.63;6.00;;;;;;;;;;5115417;28;20074;-62
2023/06/17 04:18:11;;;;;;;7.90;6.47;;;;;;;;;;5116576;28;20058;-61
2023/06/17 04:20:37;;;;;;;8.95;6.13;;;;;;;;;;5113975;28;20408;-62
2023/06/17 04:23:04;;;;;;;8.80;6.70;;;;;;;;;;5114641;28;20055;-62
2023/06/17 04:25:32;;;;;;;7.53;6.63;;;;;;;;;;5114749;28;20047;-62
2023/06/17 04:28:01;;;;;;;10.13;6.90;;;;;;;;;;5116613;28;20414;-61
2023/06/17 04:30:28;;;;;;;8.65;6.63;;;;;;;;;;5116923;28;20055;-62
2023/06/17 04:32:57;;;;;;;7.88;6.05;;;;;;;;;;5103078;28;20060;-62
2023/06/17 04:35:24;;;;;;;7.80;6.30;;;;;;;;;;5098036;28;20056;-62
2023/06/17 04:37:54;;;;;;;7.22;5.90;;;;;;;;;;5109349;28;20058;-62
2023/06/17 04:40:21;;;;;;;7.47;6.20;;;;;;;;;;5115662;28;20051;-61
2023/06/17 04:42:48;;;;;;;6.70;6.00;;;;;;;;;;5115960;28;20047;-62
2023/06/17 04:45:17;;;;;;;7.88;6.75;;;;;;;;;;5114513;28;20055;-61
2023/06/17 04:47:44;;;;;;;7.30;6.60;;;;;;;;;;5115910;28;20055;-61
2023/06/17 04:50:12;;;;;;;8.85;7.10;;;;;;;;;;5113980;28;20055;-61
2023/06/17 04:52:42;;;;;;;7.20;6.22;;;;;;;;;;5107615;28;20051;-61
2023/06/17 04:55:09;;;;;;;;;;;;;;;;;;5116476;28;20054;-61
2023/06/17 04:57:35;;;;;;;7.55;6.75;;;;;;;;;;5115487;28;19927;-61
2023/06/17 05:00:02;;;;;;;9.43;7.60;;;;;;;;;;5115392;28;20412;-62
2023/06/17 05:02:31;;;;;;;9.43;7.28;;;;;;;;;;5113771;28;20066;-61
2023/06/17 05:04:57;;;;;;;9.38;7.45;;;;;;;;;;5115430;28;20055;-61
2023/06/17 05:07:24;;;;;;;8.18;7.00;;;;;;;;;;5107870;28;20420;-62
2023/06/17 05:09:51;;;;;;;8.88;7.28;;;;;;;;;;5115066;28;20043;-63
2023/06/17 05:12:18;;;;;;;10.40;7.50;;;;;;;;;;5113699;28;20047;-61
2023/06/17 05:14:44;;;;;;;8.68;7.05;;;;;;;;;;5115563;28;20381;-62
2023/06/17 05:17:11;;;;;;;9.20;7.53;;;;;;;;;;5115393;28;20059;-62
2023/06/17 05:19:40;;;;;;;8.95;6.78;;;;;;;;;;5115040;28;20062;-62
2023/06/17 05:22:07;;;;;;;8.77;6.28;;;;;;;;;;5109912;28;20059;-62
2023/06/17 05:24:34;;;;;;;9.25;7.60;;;;;;;;;;5115330;28;20381;-62
2023/06/17 05:27:01;;;;;;;8.75;7.43;;;;;;;;;;5115283;28;20055;-62
2023/06/17 05:29:28;;;;;;;7.50;6.70;;;;;;;;;;5115469;28;20070;-62
2023/06/17 05:31:54;;;;;;;7.97;6.70;;;;;;;;;;5111850;28;20055;-62
2023/06/17 05:34:21;;;;;;;9.07;7.00;;;;;;;;;;5106488;28;20055;-62
2023/06/17 05:36:49;;;;;;;7.60;6.80;;;;;;;;;;5106310;28;20051;-61
2023/06/17 05:39:16;;;;;;;9.23;7.45;;;;;;;;;;5114691;28;20389;-61
2023/06/17 05:41:43;;;;;;;7.43;6.60;;;;;;;;;;5112358;28;20051;-61
2023/06/17 05:44:10;;;;;;;8.70;6.20;;;;;;;;;;5113794;28;20051;-61
2023/06/17 05:46:37;;;;;;;8.63;5.90;;;;;;;;;;5099664;28;20123;-61
2023/06/17 05:49:04;;;;;;;11.07;6.63;;;;;;;;;;5094765;28;20059;-62
2023/06/17 05:51:31;;;;;;;8.80;7.10;;;;;;;;;;5088678;28;20044;-61
2023/06/17 05:53:59;;;;;;;7.43;6.57;;;;;;;;;;5097802;28;20044;-61
2023/06/17 05:56:27;;;;;;;8.50;6.72;;;;;;;;;;5089511;28;20052;-61
2023/06/17 05:58:54;;;;;;;8.95;7.07;;;;;;;;;;5091401;28;20048;-61
2023/06/17 06:01:21;;;;;;;7.90;6.85;;;;;;;;;;5091485;28;20409;-61
2023/06/17 06:03:47;;;;;;;8.15;7.18;;;;;;;;;;5092167;28;20060;-61
2023/06/17 06:06:14;;;;;;;9.35;6.80;;;;;;;;;;5088925;28;20059;-61
2023/06/17 06:08:41;;;;;;;10.40;7.72;;;;;;;;;;5096297;28;20055;-61
2023/06/17 06:11:10;;;;;;;9.40;7.28;;;;;;;;;;5093744;28;20048;-61
2023/06/17 06:13:36;;;;;;;7.47;6.78;;;;;;;;;;5105707;28;20059;-61
2023/06/17 06:16:03;;;;;;;8.00;6.63;;;;;;;;;;5091257;28;20044;-61
2023/06/17 06:18:31;;;;;;;8.05;6.10;;;;;;;;;;5084722;28;20385;-61
2023/06/17 06:20:57;;;;;;;8.63;6.18;;;;;;;;;;5090707;28;20055;-61
2023/06/17 06:23:24;;;;;;;7.65;5.93;;;;;;;;;;5093244;28;20048;-61
2023/06/17 06:25:51;;;;;;;8.30;6.03;;;;;;;;;;5090079;28;20070;-61
2023/06/17 06:28:19;;;;;;;7.53;6.30;;;;;;;;;;5089170;28;20158;-61
2023/06/17 06:30:47;;;;;;;8.10;5.00;;;;;;;;;;5091243;28;20119;-61
2023/06/17 06:33:13;;;;;;;5.68;5.10;;;;;;;;;;5090409;28;20066;-61
2023/06/17 06:35:40;;;;;;;5.25;4.75;;;;;;;;;;5091001;28;20044;-61
2023/06/17 06:38:07;;;;;;;9.63;5.65;;;;;;;;;;5093184;28;20047;-61
2023/06/17 06:40:34;;;;;;;8.57;5.60;;;;;;;;;;5096549;28;20052;-61
2023/06/17 06:43:01;;;;;;;6.53;5.32;;;;;;;;;;5110691;28;20479;-61
2023/06/17 06:45:29;;;;;;;6.35;5.30;;;;;;;;;;5106444;28;21489;-62
2023/06/17 06:47:56;;;;;;;8.30;5.40;;;;;;;;;;5108514;27;20056;-61
2023/06/17 06:50:22;;;;;;;7.10;5.20;;;;;;;;;;5109771;28;20048;-61
2023/06/17 06:52:49;;;;;;;6.43;5.75;;;;;;;;;;5109102;28;20051;-62
2023/06/17 06:55:16;;;;;;;6.20;5.55;;;;;;;;;;5109985;28;20504;-61
2023/06/17 06:57:43;;;;;;;7.00;5.15;;;;;;;;;;5109026;27;20048;-61
2023/06/17 07:00:10;;;;;;;7.90;5.35;;;;;;;;;;5106575;27;20051;-61
2023/06/17 07:02:38;;;;;;;8.10;5.07;;;;;;;;;;5111197;28;20056;-61
2023/06/17 07:05:05;;;;;;;6.90;5.32;;;;;;;;;;5110338;28;20420;-61
2023/06/17 07:07:32;;;;;;;6.93;4.90;;;;;;;;;;5115234;27;20487;-61
2023/06/17 07:09:59;;;;;;;5.28;4.78;;;;;;;;;;5110360;28;20047;-61
2023/06/17 07:12:25;;;;;;;7.65;5.10;;;;;;;;;;5110998;28;20051;-61
2023/06/17 07:14:52;;;;;;;6.45;5.40;;;;;;;;;;5109394;28;20058;-62
2023/06/17 07:17:19;;;;;;;6.80;6.10;;;;;;;;;;5109258;28;20134;-61
2023/06/17 07:19:47;;;;;;;9.68;5.88;;;;;;;;;;5109347;28;20051;-61
2023/06/17 07:22:14;;;;;;;7.65;5.50;;;;;;;;;;5113273;27;20044;-61
2023/06/17 07:24:41;;;;;;;7.13;5.78;;;;;;;;;;5108715;28;20126;-61
2023/06/17 07:27:08;;;;;;;6.63;5.57;;;;;;;;;;5110593;28;20522;-61
2023/06/17 07:29:35;;;;;;;6.53;5.28;;;;;;;;;;5110597;28;20059;-61
2023/06/17 07:32:02;;;;;;;9.00;5.82;;;;;;;;;;5109589;28;20043;-61
2023/06/17 07:34:28;;;;;;;6.30;5.63;;;;;;;;;;5109418;27;20047;-61
2023/06/17 07:36:57;;;;;;;8.32;6.15;;;;;;;;;;5108246;28;20047;-61
2023/06/17 07:39:23;;;;;;;6.28;5.60;;;;;;;;;;5111056;28;20748;-61
2023/06/17 07:41:50;;;;;;;6.63;5.60;;;;;;;;;;5109749;28;20487;-61
2023/06/17 07:44:17;;;;;;;6.30;5.00;;;;;;;;;;5109842;28;20054;-61
2023/06/17 07:46:44;;;;;;;7.28;5.90;;;;;;;;;;5111109;28;20047;-61
2023/06/17 07:49:11;;;;;;;8.25;5.82;;;;;;;;;;5115838;28;20058;-60
2023/06/17 07:51:38;;;;;;;7.53;5.32;;;;;;;;;;5114010;28;20056;-59
2023/06/17 07:54:06;;;;;;;6.50;5.07;;;;;;;;;;5111128;27;20059;-59
2023/06/17 07:56:33;;;;;;;6.22;4.93;;;;;;;;;;5114651;28;20070;-60
2023/06/17 07:59:00;;;;;;;6.63;5.30;;;;;;;;;;5111926;28;20047;-60
2023/06/17 08:01:27;;;;;;;4.82;4.32;;;;;;;;;;5114790;28;20044;-60
2023/06/17 08:03:53;;;;;;;7.25;5.07;;;;;;;;;;5112350;28;20060;-61
2023/06/17 08:06:20;;;;;;;5.30;4.60;;;;;;;;;;5115512;27;20070;-62
2023/06/17 08:08:47;;;;;;;5.45;4.25;;;;;;;;;;5113487;27;20472;-62
2023/06/17 08:11:15;;;;;;;6.75;5.00;;;;;;;;;;5114885;27;20055;-62
2023/06/17 08:13:42;;;;;;;7.05;5.05;;;;;;;;;;5109861;28;20055;-62
2023/06/17 08:16:09;;;;;;;4.72;4.00;;;;;;;;;;5113535;28;20058;-61
2023/06/17 08:18:36;;;;;;;5.07;4.05;;;;;;;;;;5113853;28;20055;-60
2023/06/17 08:21:02;;;;;;;5.65;3.75;;;;;;;;;;5112058;28;20066;-60
2023/06/17 08:23:29;;;;;;;5.72;4.18;;;;;;;;;;5116824;27;20051;-61
2023/06/17 08:25:57;;;;;;;5.80;3.80;;;;;;;;;;5110852;28;20070;-61
2023/06/17 08:28:25;;;;;;;4.35;3.75;;;;;;;;;;5112860;28;20484;-61
2023/06/17 08:30:52;;;;;;;4.97;3.47;;;;;;;;;;5116190;28;20052;-61
2023/06/17 08:33:18;;;;;;;7.13;4.20;;;;;;;;;;5116358;28;20055;-61
2023/06/17 08:35:45;;;;;;;5.57;3.45;;;;;;;;;;5116096;28;20066;-62
2023/06/17 08:38:12;;;;;;;3.97;3.47;;;;;;;;;;5117407;27;20048;-62
2023/06/17 08:40:44;;;;;;;5.10;3.10;;;;;;;;;;5114757;28;20059;-62
2023/06/17 08:43:11;;;;;;;3.95;2.88;;;;;;;;;;5116119;28;20044;-61
2023/06/17 08:45:39;;;;;;;3.85;3.30;;;;;;;;;;5111150;28;20052;-62
2023/06/17 08:48:07;;;;;;;4.45;3.47;;;;;;;;;;5112199;28;20051;-60
2023/06/17 08:50:34;;;;;;;3.53;3.20;;;;;;;;;;5112945;28;20051;-61
2023/06/17 08:53:02;;;;;;;3.73;3.43;;;;;;;;;;5116014;27;20069;-61
2023/06/17 08:55:29;;;;;;;3.00;2.70;;;;;;;;;;5112566;28;20047;-61
2023/06/17 08:57:56;;;;;;;4.15;3.40;;;;;;;;;;5112512;27;20503;-61
2023/06/17 09:00:23;;;;;;;3.73;3.00;;;;;;;;;;5108654;27;20051;-62
2023/06/17 09:02:52;;;;;;;5.05;3.33;;;;;;;;;;5108857;28;20066;-61
2023/06/17 09:05:19;;;;;;;4.22;3.38;;;;;;;;;;5109062;28;20062;-60
2023/06/17 09:07:46;;;;;;;4.57;3.38;;;;;;;;;;5105745;27;20051;-61
2023/06/17 09:10:15;;;;;;;4.22;3.40;;;;;;;;;;5113448;28;20070;-61
2023/06/17 09:12:42;;;;;;;4.45;3.63;;;;;;;;;;5114831;28;20483;-62
2023/06/17 09:15:15;;;;;;;5.00;3.33;;;;;;;;;;5115137;28;20048;-62
2023/06/17 09:17:43;;;;;;;4.40;3.92;;;;;;;;;;5114515;28;20054;-61
2023/06/17 09:20:12;;;;;;;4.43;3.55;;;;;;;;;;5115555;28;20435;-61
2023/06/17 09:22:40;;;;;;;4.40;3.58;;;;;;;;;;5116303;27;20048;-60
2023/06/17 09:25:07;;;;;;;;;;;;;;;;;;5115589;28;20487;-62
2023/06/17 09:27:34;;;;;;;5.47;3.40;;;;;;;;;;5113133;27;19927;-60
2023/06/17 09:30:06;;;;;;;4.35;3.65;;;;;;;;;;5115107;28;20051;-61
2023/06/17 09:32:38;;;;;;;4.18;3.30;;;;;;;;;;5115236;28;20426;-62
2023/06/17 09:35:05;;;;;;;5.35;3.63;;;;;;;;;;5114778;28;20047;-61
2023/06/17 09:37:34;;;;;;;5.20;3.33;;;;;;;;;;5109392;28;20070;-60
2023/06/17 09:40:02;;;;;;;3.72;3.25;;;;;;;;;;5110947;28;20062;-61
2023/06/17 09:42:30;;;;;;;3.50;3.08;;;;;;;;;;5113997;28;20055;-61
2023/06/17 09:45:02;;;;;;;4.35;3.22;;;;;;;;;;5114259;28;20058;-61
2023/06/17 09:47:32;;;;;;;5.32;3.40;;;;;;;;;;5113569;27;20067;-61
2023/06/17 09:50:02;;;;;;;3.38;3.05;;;;;;;;;;5107205;28;20059;-61
2023/06/17 09:52:30;;;;;;;3.40;3.10;;;;;;;;;;5106755;27;20054;-62
2023/06/17 09:54:59;;;;;;;3.67;3.30;;;;;;;;;;5110282;28;20055;-63
2023/06/17 09:57:31;;;;;;;3.80;3.05;;;;;;;;;;5109761;28;20052;-63
2023/06/17 09:59:59;;;;;;;3.15;2.80;;;;;;;;;;5111561;28;20063;-63
2023/06/17 10:02:26;;;;;;;3.42;3.13;;;;;;;;;;5108913;28;20043;-63
2023/06/17 10:04:53;;;;;;;3.92;2.97;;;;;;;;;;5112554;27;20047;-63
2023/06/17 10:07:20;;;;;;;;;;;;;;;;;;5113467;27;20172;-63
2023/06/17 10:09:48;;;;;;;3.47;2.70;;;;;;;;;;5114251;28;19920;-63
2023/06/17 10:12:16;;;;;;;3.38;2.55;;;;;;;;;;5114273;28;20461;-63
2023/06/17 10:14:43;;;;;;;3.90;2.67;;;;;;;;;;5113208;27;20408;-64
2023/06/17 10:17:11;;;;;;;5.05;2.97;;;;;;;;;;5113743;28;20043;-64
2023/06/17 10:19:39;;;;;;;3.15;2.50;;;;;;;;;;5113792;28;20063;-64
2023/06/17 10:22:08;;;;;;;3.95;2.90;;;;;;;;;;5115755;27;20048;-64
2023/06/17 10:24:35;;;;;;;4.15;3.13;;;;;;;;;;5112590;28;20054;-64
2023/06/17 10:27:07;;;;;;;3.20;2.90;;;;;;;;;;5110322;28;20071;-64
2023/06/17 10:29:35;;;;;;;3.78;2.85;;;;;;;;;;5110656;28;20055;-64
2023/06/17 10:32:19;;;;;;;3.30;2.97;;;;;;;;;;5109582;28;20424;-64
2023/06/17 10:35:01;;;;;;;6.00;2.90;;;;;;;;;;5108086;28;20047;-64
2023/06/17 10:37:28;;;;;;;3.08;2.70;;;;;;;;;;5107147;28;20480;-64
2023/06/17 10:39:54;;;;;;;3.60;2.80;;;;;;;;;;5110272;28;20067;-64
2023/06/17 10:42:25;;;;;;;2.95;2.42;;;;;;;;;;5113076;28;20047;-64
2023/06/17 10:44:57;;;;;;;3.38;2.40;;;;;;;;;;5113136;27;20056;-62
2023/06/17 10:47:30;;;;;;;2.90;2.60;;;;;;;;;;5111867;28;20062;-62
2023/06/17 10:50:00;;;;;;;3.28;2.70;;;;;;;;;;5105141;28;20053;-61
2023/06/17 10:52:30;;;;;;;3.53;2.67;;;;;;;;;;5110668;28;20050;-62
2023/06/17 10:54:57;;;;;;;2.67;2.47;;;;;;;;;;5111150;28;20396;-62
2023/06/17 10:57:32;;;;;;;4.25;3.00;;;;;;;;;;5109702;28;20043;-61
2023/06/17 11:00:08;;;;;;;4.72;2.90;;;;;;;;;;5111540;28;20385;-65
2023/06/17 11:02:36;;;;;;;3.15;2.85;;;;;;;;;;5109171;28;20055;-63
2023/06/17 11:05:03;;;;;;;3.55;2.72;;;;;;;;;;5104887;28;20059;-63
2023/06/17 11:07:30;;;;;;;5.20;2.72;;;;;;;;;;5108386;27;20043;-64
2023/06/17 11:09:57;;;;;;;6.22;3.00;;;;;;;;;;5109834;28;20126;-65
2023/06/17 11:12:24;;;;;;;4.22;2.53;;;;;;;;;;5111508;28;20499;-65
2023/06/17 11:14:51;;;;;;;4.32;2.60;;;;;;;;;;5110346;28;20074;-65
2023/06/17 11:17:19;;;;;;;3.40;2.90;;;;;;;;;;5111658;28;20051;-65
2023/06/17 11:19:46;;;;;;;2.88;2.67;;;;;;;;;;5111737;28;20086;-65
2023/06/17 11:22:13;;;;;;;4.50;2.95;;;;;;;;;;5111825;27;20056;-64
2023/06/17 11:24:40;;;;;;;3.72;2.58;;;;;;;;;;5110763;28;20059;-66
2023/06/17 11:27:11;;;;;;;3.25;2.50;;;;;;;;;;5111708;28;20047;-64
2023/06/17 11:29:41;;;;;;;4.50;2.83;;;;;;;;;;5112272;28;20052;-64
2023/06/17 11:32:09;;;;;;;3.40;3.10;;;;;;;;;;5113101;28;20054;-64
2023/06/17 11:34:37;;;;;;;3.70;2.75;;;;;;;;;;5113217;28;20460;-65
2023/06/17 11:37:06;;;;;;;3.22;2.58;;;;;;;;;;5112545;28;20055;-65
2023/06/17 11:39:33;;;;;;;2.80;2.60;;;;;;;;;;5112377;28;20060;-65
2023/06/17 11:42:01;;;;;;;3.30;2.80;;;;;;;;;;5112427;28;20068;-65
2023/06/17 11:44:29;;;;;;;3.30;3.00;;;;;;;;;;5112174;28;20367;-66
2023/06/17 11:46:56;;;;;;;;;;;;;;;;;;5113051;28;20432;-66
2023/06/17 11:49:25;;;;;;;2.80;2.60;;;;;;;;;;5112826;28;19927;-66
2023/06/17 11:51:53;;;;;;;2.65;2.45;;;;;;;;;;5111636;28;20047;-65
2023/06/17 11:54:21;;;;;;;3.58;2.50;;;;;;;;;;5113690;28;20055;-64
2023/06/17 11:56:48;;;;;;;2.78;2.58;;;;;;;;;;5112145;28;20056;-65
2023/06/17 11:59:18;;;;;;;3.30;2.70;;;;;;;;;;5112637;28;20059;-65
2023/06/17 12:01:45;;;;;;;3.42;2.63;;;;;;;;;;5112531;28;20420;-65
2023/06/17 12:04:12;;;;;;;2.50;2.30;;;;;;;;;;5112489;28;20058;-65
2023/06/17 12:06:47;;;;;;;3.55;2.58;;;;;;;;;;5111194;28;20483;-64
2023/06/17 12:09:16;;;;;;;3.13;2.38;;;;;;;;;;5110002;28;20058;-65
2023/06/17 12:11:43;;;;;;;3.75;2.65;;;;;;;;;;5112222;28;20102;-64
2023/06/17 12:14:10;;;;;;;2.95;2.58;;;;;;;;;;5112394;28;20055;-65
2023/06/17 12:16:38;;;;;;;3.50;2.83;;;;;;;;;;5113156;28;20515;-64
2023/06/17 12:19:07;;;;;;;3.20;2.90;;;;;;;;;;5112618;28;20058;-65
2023/06/17 12:21:35;;;;;;;3.10;2.60;;;;;;;;;;5111281;28;20416;-66
2023/06/17 12:24:02;;;;;;;3.30;3.00;;;;;;;;;;5111891;28;20052;-65
2023/06/17 12:26:29;;;;;;;;;;;;;;;;;;5112253;28;20409;-64
2023/06/17 12:28:57;;;;;;;3.88;2.90;;;;;;;;;;5112448;28;19919;-64
2023/06/17 12:31:25;;;;;;;3.72;2.83;;;;;;;;;;5114418;28;20051;-64
2023/06/17 12:33:52;;;;;;;3.10;2.58;;;;;;;;;;5116262;28;20051;-64
2023/06/17 12:36:18;;;;;;;4.25;3.13;;;;;;;;;;5114885;27;20055;-64
2023/06/17 12:38:46;;;;;;;3.20;2.90;;;;;;;;;;5116181;28;20051;-64
2023/06/17 12:41:13;;;;;;;3.88;3.17;;;;;;;;;;5116009;28;20400;-64
2023/06/17 12:43:41;;;;;;;3.35;2.92;;;;;;;;;;5116122;28;20047;-65
2023/06/17 12:46:09;;;;;;;3.40;2.83;;;;;;;;;;5114270;27;20047;-65
2023/06/17 12:48:36;;;;;;;3.97;3.17;;;;;;;;;;5115050;28;20048;-64
2023/06/17 12:51:03;;;;;;;3.70;2.70;;;;;;;;;;5115292;27;20048;-65
2023/06/17 12:53:30;;;;;;;4.38;3.08;;;;;;;;;;5115942;28;20054;-63
2023/06/17 12:55:57;;;;;;;4.25;3.13;;;;;;;;;;5114987;28;20047;-62
2023/06/17 12:58:25;;;;;;;3.75;3.15;;;;;;;;;;5116104;28;20047;-62
2023/06/17 13:00:52;;;;;;;8.25;3.17;;;;;;;;;;5116098;28;20048;-63
2023/06/17 13:03:19;;;;;;;;;;;;;;;;;;5115845;28;20059;-62
2023/06/17 13:05:48;;;;;;;3.27;2.90;;;;;;;;;;5115043;27;20407;-62
2023/06/17 13:08:15;;;;;;;4.60;3.28;;;;;;;;;;5115252;28;20477;-61
2023/06/17 13:10:42;;;;;;;4.55;3.38;;;;;;;;;;5115255;28;20051;-62
2023/06/17 13:13:09;;;;;;;3.23;2.93;;;;;;;;;;5115763;28;20043;-62
2023/06/17 13:15:36;;;;;;;3.83;3.40;;;;;;;;;;5114347;28;20826;-62
2023/06/17 13:18:03;;;;;;;4.73;3.33;;;;;;;;;;5115839;28;20062;-63
2023/06/17 13:20:30;;;;;;;3.80;3.50;;;;;;;;;;5113547;27;20485;-61
2023/06/17 13:22:59;;;;;;;4.32;3.00;;;;;;;;;;5114637;28;20067;-62
2023/06/17 13:25:26;;;;;;;5.05;3.03;;;;;;;;;;5114528;28;20055;-62
2023/06/17 13:27:53;;;;;;;4.35;3.28;;;;;;;;;;5115485;28;20078;-62
2023/06/17 13:30:20;;;;;;;4.88;3.10;;;;;;;;;;5115050;28;20067;-62
2023/06/17 13:32:47;;;;;;;3.80;3.33;;;;;;;;;;5115017;28;20509;-63
2023/06/17 13:35:14;;;;;;;3.85;3.33;;;;;;;;;;5113176;28;20047;-63
2023/06/17 13:37:41;;;;;;;3.80;3.38;;;;;;;;;;5114996;28;20051;-62
2023/06/17 13:40:09;;;;;;;3.90;3.60;;;;;;;;;;5114650;28;20063;-62
2023/06/17 13:42:36;;;;;;;3.60;3.30;;;;;;;;;;5114074;28;20052;-62
2023/06/17 13:45:04;;;;;;;3.83;3.53;;;;;;;;;;5113597;28;20047;-62
2023/06/17 13:47:32;;;;;;;3.97;3.58;;;;;;;;;;5114698;28;20527;-62
2023/06/17 13:49:58;;;;;;;;;;;;;;;;;;5114976;28;20051;-62
2023/06/17 13:52:25;;;;;;;3.65;3.13;;;;;;;;;;5112673;27;19927;-62
2023/06/17 13:54:52;;;;;;;4.32;3.88;;;;;;;;;;5114558;28;20456;-62
2023/06/17 13:57:20;;;;;;;3.90;3.50;;;;;;;;;;5114499;28;20050;-62
2023/06/17 13:59:47;;;;;;;4.38;3.55;;;;;;;;;;5114328;28;20051;-62
2023/06/17 14:02:14;;;;;;;4.47;3.72;;;;;;;;;;5113764;27;20052;-62
2023/06/17 14:04:42;;;;;;;3.72;3.42;;;;;;;;;;5114570;28;20416;-62
2023/06/17 14:07:08;;;;;;;4.03;3.40;;;;;;;;;;5109043;27;20052;-62
2023/06/17 14:09:35;;;;;;;3.88;3.50;;;;;;;;;;5114470;28;20047;-62
2023/06/17 14:12:03;;;;;;;4.20;3.67;;;;;;;;;;5113408;28;20052;-62
2023/06/17 14:14:30;;;;;;;;;;;;;;;;;;5115370;28;20047;-62
2023/06/17 14:17:03;;;;;;;5.10;3.65;;;;;;;;;;5093666;28;19920;-61
2023/06/17 14:19:31;;;;;;;4.57;3.63;;;;;;;;;;5093359;28;20048;-62
2023/06/17 14:21:57;;;;;;;;;;;;;;;;;;5110148;27;20062;-62
2023/06/17 14:24:24;;;;;;;3.78;3.28;;;;;;;;;;5114335;28;19919;-63
2023/06/17 14:27:07;;;;;;;4.22;3.40;;;;;;;;;;5113770;28;20503;-62
2023/06/17 14:29:37;;;;;;;4.55;3.60;;;;;;;;;;5111042;28;20056;-63
2023/06/17 14:32:05;;;;;;;4.65;4.25;;;;;;;;;;5113115;28;20052;-62
2023/06/17 14:34:32;;;;;;;4.55;3.80;;;;;;;;;;5113523;28;20063;-63
2023/06/17 14:36:59;;;;;;;3.80;3.40;;;;;;;;;;5113172;27;20074;-62
2023/06/17 14:39:26;;;;;;;4.15;3.75;;;;;;;;;;5113452;28;20538;-62
2023/06/17 14:41:53;;;;;;;4.82;3.88;;;;;;;;;;5112853;28;20063;-62
2023/06/17 14:44:20;;;;;;;4.68;3.78;;;;;;;;;;5113770;28;20043;-63
2023/06/17 14:46:46;;;;;;;3.88;3.58;;;;;;;;;;5113734;28;20055;-62
2023/06/17 14:49:15;;;;;;;4.75;3.97;;;;;;;;;;5113365;28;20483;-62
2023/06/17 14:51:42;;;;;;;4.30;3.90;;;;;;;;;;5112110;27;20055;-62
2023/06/17 14:54:08;;;;;;;4.53;3.60;;;;;;;;;;5113038;28;20059;-62
2023/06/17 14:56:36;;;;;;;4.80;3.92;;;;;;;;;;5113410;28;20051;-62